Miguel Oliver — ECLX — position and weather

sailwx.info

Track history (hours):
 
Tides and Currents Weather Stations Pressure Air Temp Water Temp Dewpoint Dewpoint Depression Visibility Wind Speed Wind Dir Waves Ship Positions

Oceanographic research ship Miguel Oliver (Spain)

Ship's website: http://www.mapa.es/es/pesca/pags/miguel_web/index.htm

Last reported at 2018-Feb-18 18:12 UTC. Time now 2018-Feb-23 14:27 UTC.
Position N 36°32' W 008°51'.

Length 70 m; draft 4.8 m.

Type: Other ship. MMSI: 225322000.

Date/timePositionNaut miles runAvg speedWind from/ knotsBaromVisibWave heightAir tempDewpointWater temp
2018-Feb-18 18:12N 36°32' W 008°51'211.6
2018-Feb-18 18:00N 36°31' W 008°54'611.3
2018-Feb-18 17:30N 36°31' W 009°01'9710.8
2018-Feb-18 08:32N 37°59' W 009°53'1812.5
2018-Feb-18 07:06N 38°16' W 009°58'112.1
2018-Feb-18 07:00N 38°17' W 009°59'612.7
2018-Feb-18 06:30N 38°23' W 010°00'713.2
2018-Feb-18 05:59N 38°30' W 010°02'613.0
2018-Feb-18 05:30N 38°36' W 010°04'612.5
2018-Feb-18 05:00N 38°42' W 010°06'612.6
2018-Feb-18 04:30N 38°49' W 010°06'612.3
2018-Feb-18 03:59N 38°55' W 010°05'612.1
2018-Feb-18 03:29N 39°01' W 010°03'611.9
2018-Feb-18 03:00N 39°06' W 010°02'611.7
2018-Feb-18 02:30N 39°12' W 009°60'711.8
2018-Feb-18 01:55N 39°19' W 009°58'  
Track history (hours):
 
Tides and Currents Weather Stations Pressure Air Temp Water Temp Dewpoint Dewpoint Depression Visibility Wind Speed Wind Dir Waves Ship Positions

Oceanographic research ship Miguel Oliver (Spain)

Ship's website: http://www.mapa.es/es/pesca/pags/miguel_web/index.htm

Last reported at 2018-Feb-18 18:12 UTC. Time now 2018-Feb-23 14:27 UTC.
Position N 36°32' W 008°51'.

Length 70 m; draft 4.8 m.

Type: Other ship. MMSI: 225322000.

Date/timePositionNaut miles runAvg speedWind from/ knotsBaromVisibWave heightAir tempDewpointWater temp
2018-Feb-18 18:12N 36°32' W 008°51'211.6
2018-Feb-18 18:00N 36°31' W 008°54'611.3
2018-Feb-18 17:30N 36°31' W 009°01'9710.8
2018-Feb-18 08:32N 37°59' W 009°53'1812.5
2018-Feb-18 07:06N 38°16' W 009°58'112.1
2018-Feb-18 07:00N 38°17' W 009°59'612.7
2018-Feb-18 06:30N 38°23' W 010°00'713.2
2018-Feb-18 05:59N 38°30' W 010°02'613.0
2018-Feb-18 05:30N 38°36' W 010°04'612.5
2018-Feb-18 05:00N 38°42' W 010°06'612.6
2018-Feb-18 04:30N 38°49' W 010°06'612.3
2018-Feb-18 03:59N 38°55' W 010°05'612.1
2018-Feb-18 03:29N 39°01' W 010°03'611.9
2018-Feb-18 03:00N 39°06' W 010°02'611.7
2018-Feb-18 02:30N 39°12' W 009°60'711.8
2018-Feb-18 01:55N 39°19' W 009°58'  

Dump ship's entire track history